METAR Data
IDs: Format: Raw Decoded Include TAF

Data at: 1436 UTC 11 Dec 2018

KDTO 111353Z 14003KT 10SM CLR M01/M02 A3031 RMK AO2 SLP266 T10061017
KDTO 111253Z 14005KT 10SM CLR 00/M02 A3031 RMK AO2 SLP266 T00001017
KDTO 111153Z 15004KT 10SM CLR 00/M02 A3032 RMK AO2 SLP267 T00001022 10033 20000 55006
KDTO 111053Z AUTO 14005KT 10SM CLR 00/M02 A3031 RMK AO2 SLP264 T00001022
KDTO 110953Z AUTO 15005KT 10SM CLR 01/M02 A3032 RMK AO2 SLP266 T00111022
KDTO 110853Z AUTO 16003KT 10SM CLR 02/M02 A3034 RMK AO2 SLP273 T00171022 56003
KDTO 110753Z AUTO 17003KT 10SM CLR 01/M03 A3034 RMK AO2 SLP273 T00061028
KDTO 110653Z AUTO 17003KT 10SM CLR 03/M02 A3034 RMK AO2 SLP274 T00281022
KDTO 110553Z AUTO 00000KT 10SM CLR 01/M02 A3034 RMK AO2 SLP276 T00111022 10106 20011 401441028 53001
KDTO 110453Z AUTO 15003KT 10SM CLR 04/M03 A3034 RMK AO2 SLP275 T00391028
KDTO 110353Z 00000KT 10SM CLR 06/M03 A3034 RMK AO2 SLP276 T00561028
KDTO 110253Z 00000KT 10SM CLR 07/M03 A3034 RMK AO2 SLP276 T00671033 51008
KDTO 110153Z 16004KT 10SM CLR 08/M03 A3034 RMK AO2 SLP276 T00781028
KDTO 110053Z 17005KT 10SM CLR 08/M02 A3033 RMK AO2 SLP273 T00781022
KDTO 102353Z 17005KT 10SM CLR 10/M02 A3032 RMK AO2 SLP268 T01001022 10144 20100 53002
KDTO 102253Z 22004KT 10SM CLR 12/M01 A3032 RMK AO2 SLP266 T01221011
KDTO 102153Z 24007KT 10SM CLR 14/M03 A3032 RMK AO2 SLP266 T01391033
KDTO 102053Z 00000KT 10SM CLR 14/M03 A3031 RMK AO2 SLP265 T01391033 56022
KDTO 101953Z 28008KT 10SM CLR 14/M05 A3033 RMK AO2 SLP269 T01391050
KDTO 101853Z 20005KT 10SM CLR 12/00 A3036 RMK AO2 SLP281 T01220000
KDTO 101753Z 28005KT 10SM CLR 11/00 A3038 RMK AO2 SLP289 T01110000 10111 21028 58004
KDTO 101653Z VRB03KT 10SM CLR 08/M02 A3040 RMK AO2 SLP296 T00831017
KDTO 101553Z 00000KT 10SM CLR 06/00 A3040 RMK AO2 SLP297 T00560000
KDTO 101453Z 00000KT 10SM CLR 02/M01 A3039 RMK AO2 SLP295 T00171011 51016
KDTO 101353Z 28003KT 10SM CLR M02/M03 A3038 RMK AO2 SLP291 T10171033
KDTO 101253Z 00000KT 10SM CLR M01/M03 A3036 RMK AO2 SLP285 T10061028
KDTO 101153Z 30003KT 10SM CLR M01/M03 A3034 RMK AO2 SLP277 T10061033 10006 21022 55003
KDTO 101053Z AUTO 00000KT 10SM CLR M01/M04 A3034 RMK AO2 SLP274 T10111039
KDTO 100953Z AUTO 36004KT 10SM CLR M02/M04 A3035 RMK AO2 SLP278 T10221039
KDTO 100853Z AUTO 29006KT 10SM CLR M01/M03 A3035 RMK AO2 SLP279 T10061028 57005
KDTO 100753Z AUTO 30005KT 10SM CLR 00/M02 A3036 RMK AO2 SLP282 T00001022
KDTO 100653Z AUTO 30003KT 10SM CLR M01/M03 A3036 RMK AO2 SLP282 T10061028
KDTO 100553Z AUTO 00000KT 10SM CLR 00/M03 A3037 RMK AO2 SLP285 T00001028 10061 20000 401060000 50002
KDTO 100453Z AUTO 30003KT 10SM CLR 02/M02 A3037 RMK AO2 SLP287 T00171022
KDTO 100353Z 32005KT 10SM CLR 02/M02 A3037 RMK AO2 SLP287 T00221017
KDTO 100253Z 32005KT 10SM CLR 03/M02 A3036 RMK AO2 SLP283 T00281017 51011